Time;durP1;ratioP1;P1;durP2;ratioP2;P2;SDS_P1;SDS_P2;PMS_P1;PMS_P2;Temp;Humidity;BMP_temperature;BMP_pressure;BME280_temperature;BME280_humidity;BME280_pressure;Samples;Min_cycle;Max_cycle;Signal;HPM_P1;HPM_P2
2021/03/03 00:02:06;;;;;;;2.97;1.20;;;;;;;1.61;77.46;100460.60;1714224;81;21692;-60
2021/03/03 00:04:33;;;;;;;3.13;1.60;;;;;;;1.61;77.43;100459.28;1718020;81;21024;-64
2021/03/03 00:07:00;;;;;;;5.57;2.20;;;;;;;1.59;77.53;100467.67;1714946;81;21194;-63
2021/03/03 00:09:28;;;;;;;7.23;2.03;;;;;;;1.57;77.62;100463.24;1719474;81;21636;-61
2021/03/03 00:11:55;;;;;;;5.60;2.37;;;;;;;1.58;77.58;100463.69;1716118;81;21270;-63
2021/03/03 00:14:22;;;;;;;5.00;1.60;;;;;;;1.58;77.64;100463.25;1713132;81;21605;-60
2021/03/03 00:16:49;;;;;;;3.67;1.70;;;;;;;1.61;77.69;100474.31;1713067;81;21211;-61
2021/03/03 00:19:17;;;;;;;3.63;1.87;;;;;;;1.61;77.71;100472.55;1716049;81;21179;-60
2021/03/03 00:21:44;;;;;;;3.57;1.93;;;;;;;1.62;77.70;100472.07;1715707;81;21221;-63
2021/03/03 00:24:12;;;;;;;5.70;1.70;;;;;;;1.60;77.68;100476.08;1716392;81;21167;-63
2021/03/03 00:26:39;;;;;;;3.77;1.30;;;;;;;1.59;77.72;100474.75;1714884;81;21163;-63
2021/03/03 00:29:06;;;;;;;6.73;2.07;;;;;;;1.57;77.71;100470.77;1712735;81;21270;-63
2021/03/03 00:31:35;;;;;;;4.17;1.77;;;;;;;1.56;77.70;100479.61;1713196;81;21207;-61
2021/03/03 00:34:04;;;;;;;3.37;1.47;;;;;;;1.54;77.83;100482.69;1714129;81;21234;-62
2021/03/03 00:36:33;;;;;;;4.43;2.27;;;;;;;1.54;77.87;100482.69;1714578;81;21218;-63
2021/03/03 00:39:00;;;;;;;2.80;1.53;;;;;;;1.53;77.91;100480.48;1713444;81;21620;-62
2021/03/03 00:41:27;;;;;;;5.27;2.83;;;;;;;1.54;77.99;100480.04;1714090;81;21182;-63
2021/03/03 00:43:55;;;;;;;8.63;3.93;;;;;;;1.52;78.00;100476.53;1716632;81;21207;-62
2021/03/03 00:46:22;;;;;;;5.40;1.77;;;;;;;1.49;77.97;100481.38;1679702;83;21674;-60
2021/03/03 00:48:50;;;;;;;7.03;2.73;;;;;;;1.45;77.96;100480.92;1615756;85;22174;-62
2021/03/03 00:51:18;;;;;;;4.10;1.93;;;;;;;1.43;78.09;100480.50;1662646;84;21207;-63
2021/03/03 00:53:46;;;;;;;6.40;2.30;;;;;;;1.39;78.22;100479.61;1654672;84;21644;-62
2021/03/03 00:56:13;;;;;;;1.90;1.30;;;;;;;1.40;78.23;100484.03;1652685;84;21214;-63
2021/03/03 00:58:41;;;;;;;4.47;1.53;;;;;;;1.41;78.25;100488.45;1658453;84;21418;-62
2021/03/03 01:01:09;;;;;;;2.63;1.20;;;;;;;1.41;78.31;100487.13;1651228;84;21287;-61
2021/03/03 01:03:38;;;;;;;3.00;1.17;;;;;;;1.40;78.24;100493.31;1656071;84;21207;-62
2021/03/03 01:06:07;;;;;;;2.27;1.33;;;;;;;1.37;78.33;100497.28;1653567;84;21213;-63
2021/03/03 01:08:35;;;;;;;3.73;1.30;;;;;;;1.37;78.33;100494.63;1654178;84;21200;-62
2021/03/03 01:11:02;;;;;;;6.13;1.40;;;;;;;1.36;78.33;100499.96;1652681;84;23637;-61
2021/03/03 01:13:31;;;;;;;5.23;1.50;;;;;;;1.36;78.38;100494.66;1650874;85;22032;-64
2021/03/03 01:15:59;;;;;;;3.00;1.40;;;;;;;1.36;78.37;100499.96;1653189;84;21227;-62
2021/03/03 01:18:27;;;;;;;4.43;2.23;;;;;;;1.34;78.44;100500.39;1651300;84;21202;-63
2021/03/03 01:20:55;;;;;;;4.13;2.07;;;;;;;1.33;78.42;100506.14;1653826;84;21537;-63
2021/03/03 01:23:22;;;;;;;4.60;2.83;;;;;;;1.32;78.44;100503.48;1652593;84;21289;-62
2021/03/03 01:25:50;;;;;;;4.97;2.63;;;;;;;1.31;78.41;100503.91;1654484;84;21798;-64
2021/03/03 01:28:17;;;;;;;2.60;1.90;;;;;;;1.30;78.47;100510.09;1652912;84;21681;-65
2021/03/03 01:30:46;;;;;;;7.80;3.27;;;;;;;1.29;78.43;100509.66;1656942;84;21215;-63
2021/03/03 01:33:27;;;;;;;3.77;1.83;;;;;;;1.28;78.55;100513.19;1656717;84;21549;-63
2021/03/03 01:35:55;;;;;;;6.00;1.87;;;;;;;1.27;78.49;100512.77;1652839;84;21780;-62
2021/03/03 01:38:24;;;;;;;4.30;1.67;;;;;;;1.25;78.54;100511.87;1653776;85;21740;-62
2021/03/03 01:40:52;;;;;;;5.37;2.17;;;;;;;1.23;78.51;100516.28;1651837;84;21198;-61
2021/03/03 01:43:19;;;;;;;3.90;2.13;;;;;;;1.20;78.53;100517.59;1654631;84;21190;-64
2021/03/03 01:45:48;;;;;;;4.63;1.70;;;;;;;1.17;78.55;100514.07;1653545;84;21219;-63
2021/03/03 01:48:16;;;;;;;7.13;2.13;;;;;;;1.18;78.58;100523.80;1659142;84;21230;-62
2021/03/03 01:50:43;;;;;;;2.53;1.23;;;;;;;1.17;78.66;100521.59;1662704;84;21616;-62
2021/03/03 01:53:11;;;;;;;4.77;1.53;;;;;;;1.16;78.69;100521.14;1713036;81;21167;-63
2021/03/03 01:55:39;;;;;;;3.13;1.33;;;;;;;1.17;78.68;100524.24;1715410;81;21661;-64
2021/03/03 01:58:06;;;;;;;3.93;1.50;;;;;;;1.17;78.68;100527.33;1720719;80;21171;-62
2021/03/03 02:00:33;;;;;;;3.40;1.40;;;;;;;1.13;78.70;100522.45;1714664;81;21460;-64
2021/03/03 02:03:00;;;;;;;5.17;1.80;;;;;;;1.13;78.65;100518.47;1713374;81;22010;-62
2021/03/03 02:05:28;;;;;;;4.80;1.90;;;;;;;1.12;78.66;100520.67;1716142;81;21563;-61
2021/03/03 02:08:16;;;;;;;8.50;3.63;;;;;;;1.12;78.74;100522.00;1714092;81;21199;-61
2021/03/03 02:10:55;;;;;;;6.50;1.90;;;;;;;1.13;78.69;100521.13;1715395;81;21203;-64
2021/03/03 02:13:33;;;;;;;3.47;1.40;;;;;;;1.10;78.66;100531.30;1716567;81;21275;-64
2021/03/03 02:16:03;;;;;;;4.27;1.60;;;;;;;1.08;78.71;100532.17;1715178;81;21194;-64
2021/03/03 02:18:30;;;;;;;3.70;1.40;;;;;;;1.05;78.72;100529.50;1717077;81;21121;-61
2021/03/03 02:21:21;;;;;;;3.50;1.20;;;;;;;1.05;78.66;100537.45;1717262;81;21715;-64
2021/03/03 02:24:13;;;;;;;3.27;1.53;;;;;;;1.03;78.68;100536.56;1713849;81;22271;-59
2021/03/03 02:26:41;;;;;;;3.87;1.67;;;;;;;1.02;78.69;100542.30;1705344;81;21219;-63
2021/03/03 02:29:22;;;;;;;4.70;1.10;;;;;;;1.03;78.73;100547.16;1716494;81;21150;-62
2021/03/03 02:31:50;;;;;;;2.83;1.30;;;;;;;1.02;78.72;100549.40;1717273;81;21143;-61
2021/03/03 02:34:19;;;;;;;3.13;1.40;;;;;;;1.00;78.71;100545.85;1718334;81;21139;-62
2021/03/03 02:36:47;;;;;;;4.73;1.53;;;;;;;0.98;78.71;100556.45;1717941;81;21273;-60
2021/03/03 02:39:15;;;;;;;5.27;1.33;;;;;;;0.96;78.71;100557.31;1717290;81;21170;-58
2021/03/03 02:41:43;;;;;;;3.10;1.50;;;;;;;0.95;78.73;100570.11;1716903;81;21170;-59
2021/03/03 02:44:10;;;;;;;3.73;1.63;;;;;;;0.94;78.77;100565.25;1719306;81;21122;-62
2021/03/03 02:46:37;;;;;;;5.77;1.77;;;;;;;0.94;78.80;100574.53;1716062;81;21155;-62
2021/03/03 02:49:06;;;;;;;6.13;2.57;;;;;;;0.93;78.86;100581.18;1713525;81;21183;-62
2021/03/03 02:51:34;;;;;;;4.27;1.90;;;;;;;0.93;78.84;100579.85;1718553;81;21194;-64
2021/03/03 02:54:01;;;;;;;3.57;1.87;;;;;;;0.90;78.86;100582.48;1722835;81;21126;-63
2021/03/03 02:56:28;;;;;;;7.33;1.90;;;;;;;0.87;78.80;100585.11;1719833;81;21114;-62
2021/03/03 02:58:58;;;;;;;5.97;1.20;;;;;;;0.82;78.85;100586.42;1719101;81;21166;-65
2021/03/03 03:01:25;;;;;;;4.97;1.20;;;;;;;0.81;78.88;100586.41;1652398;84;21179;-65
2021/03/03 03:04:11;;;;;;;4.67;1.47;;;;;;;0.79;79.05;100588.16;1716627;81;21750;-62
2021/03/03 03:06:56;;;;;;;5.90;1.17;;;;;;;0.77;79.15;100584.65;1713803;81;21302;-64
2021/03/03 03:09:41;;;;;;;4.20;1.60;;;;;;;0.77;79.17;100582.00;1714392;81;21171;-63
2021/03/03 03:12:27;;;;;;;3.37;1.57;;;;;;;0.76;79.22;100585.09;1714827;81;21238;-62
2021/03/03 03:15:14;;;;;;;6.47;1.40;;;;;;;0.73;79.21;100588.59;1714034;81;21242;-62
2021/03/03 03:17:44;;;;;;;5.93;1.77;;;;;;;0.73;79.21;100598.31;1714607;81;21795;-61
2021/03/03 03:20:13;;;;;;;3.77;1.23;;;;;;;0.71;79.30;100595.64;1709021;81;21574;-61
2021/03/03 03:22:40;;;;;;;5.33;1.20;;;;;;;0.69;79.31;100600.05;1719059;81;22233;-60
2021/03/03 03:25:09;;;;;;;5.60;1.50;;;;;;;0.70;79.42;100606.23;1717184;81;22134;-61
2021/03/03 03:27:36;;;;;;;4.43;1.37;;;;;;;0.69;79.35;100606.67;1717748;81;21004;-59
2021/03/03 03:30:05;;;;;;;5.37;1.83;;;;;;;0.65;79.45;100600.03;1714834;81;21400;-60
2021/03/03 03:32:32;;;;;;;4.90;1.30;;;;;;;0.65;79.54;100606.22;1719590;81;21224;-60
2021/03/03 03:35:00;;;;;;;2.33;1.00;;;;;;;0.64;79.56;100602.23;1717265;81;21135;-59
2021/03/03 03:37:27;;;;;;;6.13;1.40;;;;;;;0.64;79.62;100595.61;1711319;81;21499;-59
2021/03/03 03:39:54;;;;;;;3.97;1.40;;;;;;;0.63;79.54;100599.14;1715251;81;21665;-58
2021/03/03 03:42:21;;;;;;;6.03;1.60;;;;;;;0.61;79.61;100592.94;1712844;81;21245;-58
2021/03/03 03:44:48;;;;;;;2.00;1.20;;;;;;;0.58;79.61;100593.83;1716996;81;21210;-59
2021/03/03 03:47:18;;;;;;;6.03;1.33;;;;;;;0.57;79.63;100592.05;1713716;81;21156;-58
2021/03/03 03:49:46;;;;;;;6.60;1.60;;;;;;;0.57;79.68;100597.78;1715446;81;21178;-58
2021/03/03 03:52:17;;;;;;;7.03;1.60;;;;;;;0.55;79.66;100602.19;1713541;81;21270;-58
2021/03/03 03:54:50;;;;;;;3.93;1.40;;;;;;;0.52;79.63;100594.20;1690876;83;21958;-57
2021/03/03 03:57:25;;;;;;;4.50;1.20;;;;;;;0.55;79.73;100601.75;1821336;75;26785;-59
2021/03/03 03:59:53;;;;;;;5.20;1.33;;;;;;;0.51;79.71;100606.56;1793387;77;21171;-56
2021/03/03 04:02:20;;;;;;;5.97;1.93;;;;;;;0.49;79.76;100601.72;1794025;77;21203;-58
2021/03/03 04:04:47;;;;;;;3.70;1.47;;;;;;;0.49;79.70;100604.37;1733842;80;21710;-57
2021/03/03 04:07:15;;;;;;;3.67;1.30;;;;;;;0.47;79.72;100602.14;1731406;80;21139;-58
2021/03/03 04:09:43;;;;;;;2.13;1.17;;;;;;;0.46;79.70;100605.66;1736176;79;21514;-58
2021/03/03 04:12:10;;;;;;;4.67;1.60;;;;;;;0.47;79.70;100611.85;1790389;77;21195;-57
2021/03/03 04:14:37;;;;;;;4.17;1.30;;;;;;;0.46;79.72;100610.96;1793288;77;21320;-57
2021/03/03 04:17:04;;;;;;;4.07;1.60;;;;;;;0.47;79.72;100610.52;1788976;77;21056;-58
2021/03/03 04:19:32;;;;;;;3.63;1.47;;;;;;;0.47;79.75;100611.41;1791927;77;21170;-57
2021/03/03 04:21:59;;;;;;;4.87;1.40;;;;;;;0.46;79.76;100610.08;1789611;77;21462;-57
2021/03/03 04:24:26;;;;;;;3.33;1.50;;;;;;;0.46;79.74;100610.96;1756022;79;21182;-57
2021/03/03 04:26:53;;;;;;;4.90;1.77;;;;;;;0.46;79.77;100614.94;1785596;77;21365;-58
2021/03/03 04:29:21;;;;;;;3.10;1.40;;;;;;;0.46;79.75;100610.08;1787977;77;22312;-56
2021/03/03 04:31:48;;;;;;;4.03;1.47;;;;;;;0.43;79.80;100606.95;1793706;77;21182;-56
2021/03/03 04:34:16;;;;;;;3.63;1.20;;;;;;;0.43;79.80;100606.95;1792122;77;21431;-56
2021/03/03 04:36:43;;;;;;;3.07;1.53;;;;;;;0.41;79.87;100614.47;1790575;77;21227;-56
2021/03/03 04:39:10;;;;;;;4.67;1.10;;;;;;;0.41;79.96;100618.44;1793113;77;21352;-56
2021/03/03 04:41:37;;;;;;;4.57;1.40;;;;;;;0.42;79.98;100618.89;1782513;77;21200;-56
2021/03/03 04:44:05;;;;;;;4.60;1.50;;;;;;;0.44;80.04;100625.06;1765153;79;21151;-56
2021/03/03 04:46:32;;;;;;;6.03;1.93;;;;;;;0.45;80.00;100629.05;1759896;79;21170;-56
2021/03/03 04:49:00;;;;;;;3.73;2.03;;;;;;;0.44;79.95;100625.95;1767999;79;22067;-56
2021/03/03 04:51:27;;;;;;;3.67;1.73;;;;;;;0.45;79.96;100634.78;1760039;79;22282;-56
2021/03/03 04:53:54;;;;;;;3.83;1.67;;;;;;;0.44;79.96;100635.22;1742501;79;21585;-56
2021/03/03 04:56:22;;;;;;;3.93;1.90;;;;;;;0.48;80.00;100650.71;1766448;79;21124;-55
2021/03/03 04:58:49;;;;;;;3.80;2.13;;;;;;;0.50;79.96;100647.20;1772570;79;21620;-56
2021/03/03 05:01:16;;;;;;;8.70;2.90;;;;;;;0.50;79.87;100652.50;1762392;79;21166;-56
2021/03/03 05:03:45;;;;;;;6.67;2.70;;;;;;;0.49;79.81;100653.81;1768231;79;21664;-56
2021/03/03 05:06:12;;;;;;;5.53;2.03;;;;;;;0.48;79.78;100662.20;1768426;79;21216;-56
2021/03/03 05:08:41;;;;;;;3.13;1.77;;;;;;;0.45;79.84;100675.41;1765370;79;21192;-56
2021/03/03 05:11:08;;;;;;;5.73;2.50;;;;;;;0.42;79.84;100666.14;1763124;79;21197;-56
2021/03/03 05:13:36;;;;;;;10.10;2.50;;;;;;;0.41;79.93;100673.63;1768125;79;21130;-56
2021/03/03 05:16:03;;;;;;;5.40;2.20;;;;;;;0.40;79.95;100671.85;1768126;79;21136;-56
2021/03/03 05:18:31;;;;;;;7.90;2.33;;;;;;;0.42;79.95;100674.52;1769580;79;21162;-56
2021/03/03 05:20:58;;;;;;;4.60;2.33;;;;;;;0.45;79.91;100678.48;1768088;79;21115;-56
2021/03/03 05:23:30;;;;;;;5.03;1.87;;;;;;;0.50;79.88;100682.97;1732687;80;21126;-56
2021/03/03 05:25:58;;;;;;;5.00;2.03;;;;;;;0.55;79.84;100686.52;1730692;80;21801;-56
2021/03/03 05:28:25;;;;;;;5.37;2.07;;;;;;;0.60;79.78;100686.53;1705537;81;21286;-57
2021/03/03 05:30:52;;;;;;;6.53;3.13;;;;;;;0.64;79.78;100691.00;1719647;81;21208;-57
2021/03/03 05:33:30;;;;;;;5.50;2.60;;;;;;;0.75;79.71;100691.53;1718519;81;21124;-57
2021/03/03 05:36:00;;;;;;;7.33;3.17;;;;;;;0.87;79.58;100690.69;1774155;79;20968;-57
2021/03/03 05:38:27;;;;;;;6.20;3.00;;;;;;;1.02;79.44;100691.23;1763371;79;21620;-56
2021/03/03 05:40:55;;;;;;;6.73;2.63;;;;;;;1.20;79.14;100702.34;1769184;79;23198;-57
2021/03/03 05:43:23;;;;;;;3.03;1.83;;;;;;;1.36;78.81;100702.41;1771044;79;21123;-56
2021/03/03 05:45:50;;;;;;;7.07;2.53;;;;;;;1.55;78.47;100702.05;1769333;79;21146;-57
2021/03/03 05:48:28;;;;;;;6.00;3.00;;;;;;;1.72;78.16;100704.75;1766179;79;21092;-59
2021/03/03 05:51:00;;;;;;;6.00;2.50;;;;;;;1.86;77.60;100702.59;1770725;79;21095;-58
2021/03/03 05:53:29;;;;;;;5.77;2.80;;;;;;;1.96;77.14;100699.96;1765887;79;22264;-59
2021/03/03 05:55:57;;;;;;;5.00;2.87;;;;;;;2.02;76.84;100707.48;1771814;79;21370;-59
2021/03/03 05:59:52;;;;;;;6.17;2.47;;;;;;;2.05;76.35;100706.58;1824953;75;26595;-59
2021/03/03 06:02:19;;;;;;;3.10;1.80;;;;;;;1.95;76.08;100709.69;1797916;77;20973;-57
2021/03/03 06:04:48;;;;;;;6.37;1.97;;;;;;;1.96;76.01;100715.89;1744328;80;21389;-58
2021/03/03 06:07:17;;;;;;;3.37;1.80;;;;;;;1.92;76.00;100718.97;1741918;79;21222;-59
2021/03/03 06:09:44;;;;;;;5.23;2.43;;;;;;;1.92;75.84;100721.63;1745196;79;21436;-59
2021/03/03 06:12:11;;;;;;;10.17;3.53;;;;;;;1.88;75.82;100727.36;1767356;77;21146;-59
2021/03/03 06:14:41;;;;;;;5.83;4.03;;;;;;;1.86;75.71;100734.89;1802336;77;21209;-60
2021/03/03 06:17:09;;;;;;;5.90;2.63;;;;;;;1.80;75.69;100731.77;1795535;77;21479;-59
2021/03/03 06:19:36;;;;;;;4.00;1.63;;;;;;;1.77;75.74;100730.89;1800754;77;21790;-59
2021/03/03 06:22:24;;;;;;;4.40;2.23;;;;;;;1.76;75.67;100733.09;1792844;77;21199;-59
2021/03/03 06:24:56;;;;;;;5.20;2.13;;;;;;;1.76;75.68;100726.45;1799884;77;21590;-59
2021/03/03 06:27:24;;;;;;;3.03;1.70;;;;;;;1.79;75.72;100726.44;1793343;77;21213;-60
2021/03/03 06:30:11;;;;;;;5.10;1.50;;;;;;;1.84;75.63;100733.99;1796084;77;21347;-60
2021/03/03 06:32:57;;;;;;;4.93;2.27;;;;;;;1.83;75.54;100727.80;1800707;77;21578;-60
2021/03/03 06:35:40;;;;;;;6.40;2.30;;;;;;;1.83;75.58;100727.80;1795088;77;22269;-60
2021/03/03 06:38:12;;;;;;;5.37;2.00;;;;;;;1.85;75.47;100725.16;1795600;77;21613;-60
2021/03/03 06:40:59;;;;;;;4.47;1.67;;;;;;;1.86;75.40;100723.84;1799515;77;21209;-60
2021/03/03 06:43:29;;;;;;;5.10;2.10;;;;;;;1.88;75.34;100717.17;1780681;78;21690;-60
2021/03/03 06:45:57;;;;;;;4.20;2.00;;;;;;;1.94;75.29;100716.32;1779973;78;21145;-60
2021/03/03 06:48:44;;;;;;;5.37;1.83;;;;;;;2.02;75.01;100711.91;1760730;78;21208;-62
2021/03/03 06:51:31;;;;;;;8.37;3.33;;;;;;;2.06;74.93;100707.91;1791759;78;20991;-60
2021/03/03 06:54:05;;;;;;;7.30;3.00;;;;;;;2.13;74.78;100715.44;1784095;78;21196;-60
2021/03/03 06:56:35;;;;;;;7.62;2.65;;;;;;;2.18;74.65;100713.25;1786421;78;22732;-61
2021/03/03 06:59:11;;;;;;;6.97;2.70;;;;;;;2.25;74.43;100716.36;1791727;78;21168;-60
2021/03/03 07:01:38;;;;;;;4.53;1.77;;;;;;;2.31;74.39;100709.26;1788691;78;21537;-60
2021/03/03 07:04:32;;;;;;;3.03;1.67;;;;;;;2.35;74.11;100710.61;1792021;78;21107;-60
2021/03/03 07:07:12;;;;;;;4.97;1.50;;;;;;;2.40;73.54;100710.59;1790630;78;21161;-60
2021/03/03 07:09:58;;;;;;;3.63;1.73;;;;;;;2.39;73.36;100713.69;1785226;78;21198;-62
2021/03/03 07:12:30;;;;;;;4.27;1.57;;;;;;;2.41;73.27;100709.70;1723989;81;21250;-61
2021/03/03 07:15:03;;;;;;;4.30;1.60;;;;;;;2.46;73.11;100707.95;1747096;79;21197;-61
2021/03/03 07:17:38;;;;;;;3.43;1.73;;;;;;;2.54;73.07;100711.05;1752178;79;21205;-62
2021/03/03 07:20:15;;;;;;;2.83;1.83;;;;;;;2.63;72.57;100715.48;1742950;79;21432;-62
2021/03/03 07:22:49;;;;;;;3.33;1.10;;;;;;;2.68;72.29;100711.03;1746240;79;21576;-61
2021/03/03 07:25:20;;;;;;;5.13;2.17;;;;;;;2.70;71.85;100705.72;1746420;79;21508;-61
2021/03/03 07:27:48;;;;;;;5.90;1.50;;;;;;;2.65;71.83;100705.27;1747311;79;21240;-61
2021/03/03 07:30:27;;;;;;;5.67;1.90;;;;;;;2.69;71.91;100715.91;1727951;81;21199;-62
2021/03/03 07:32:55;;;;;;;5.87;2.03;;;;;;;2.74;71.96;100711.02;1722222;81;21206;-62
2021/03/03 07:35:25;;;;;;;6.40;2.30;;;;;;;2.81;71.63;100711.44;1737429;80;21554;-60
2021/03/03 07:37:56;;;;;;;5.23;2.43;;;;;;;2.82;71.65;100707.01;1745570;80;22184;-63
2021/03/03 07:40:26;;;;;;;3.10;2.00;;;;;;;2.86;71.55;100710.12;1748287;80;21119;-63
2021/03/03 07:42:57;;;;;;;4.00;2.10;;;;;;;2.89;71.42;100706.14;1747769;79;22440;-61
2021/03/03 07:45:28;;;;;;;4.70;2.13;;;;;;;2.95;71.38;100704.34;1695395;82;21166;-63
2021/03/03 07:47:56;;;;;;;4.87;1.67;;;;;;;3.03;71.17;100706.98;1745663;80;21704;-62
2021/03/03 07:50:23;;;;;;;3.17;1.60;;;;;;;3.13;70.94;100716.71;1745785;80;21183;-61
2021/03/03 07:52:56;;;;;;;3.43;1.80;;;;;;;3.21;70.82;100711.36;1743174;80;21171;-63
2021/03/03 07:55:24;;;;;;;4.60;1.53;;;;;;;3.27;70.63;100708.67;1754092;79;21203;-63
2021/03/03 07:57:53;;;;;;;2.70;1.17;;;;;;;3.32;70.04;100714.84;1748692;79;21206;-62
2021/03/03 08:00:25;;;;;;;4.50;1.47;;;;;;;3.35;70.15;100714.41;1720153;82;22297;-62
2021/03/03 08:02:55;;;;;;;3.43;1.73;;;;;;;3.37;69.89;100713.96;1721638;82;22204;-60
2021/03/03 08:05:37;;;;;;;6.23;1.87;;;;;;;3.40;69.83;100715.26;1745742;80;21606;-60
2021/03/03 08:08:26;;;;;;;3.43;1.40;;;;;;;3.42;69.61;100716.14;1719571;81;21174;-64
2021/03/03 08:11:06;;;;;;;4.27;1.80;;;;;;;3.43;69.18;100715.26;1745094;80;21109;-64
2021/03/03 08:13:36;;;;;;;5.60;1.50;;;;;;;3.42;69.03;100717.92;1742371;80;21090;-64
2021/03/03 08:16:07;;;;;;;5.40;1.57;;;;;;;3.40;68.68;100711.27;1744550;80;21211;-62
2021/03/03 08:18:57;;;;;;;5.60;1.90;;;;;;;3.39;68.87;100710.86;1748578;79;21273;-63
2021/03/03 08:21:25;;;;;;;3.83;1.47;;;;;;;3.45;68.83;100710.38;1692461;82;21655;-64
2021/03/03 08:23:58;;;;;;;4.53;1.27;;;;;;;3.49;69.10;100711.67;1745340;80;21175;-63
2021/03/03 08:29:16;;;;;;;5.10;1.33;;;;;;;3.61;68.57;100715.63;1862583;75;26653;-62
2021/03/03 08:31:43;;;;;;;2.47;1.03;;;;;;;3.59;68.59;100706.75;1775691;78;21564;-63
2021/03/03 08:34:11;;;;;;;4.27;1.33;;;;;;;3.64;68.62;100706.75;1809821;78;21383;-67
2021/03/03 08:36:46;;;;;;;3.57;1.43;;;;;;;3.70;68.21;100711.59;1810112;78;21047;-62
2021/03/03 08:39:22;;;;;;;5.87;1.70;;;;;;;3.72;68.20;100709.81;1778058;78;21593;-64
2021/03/03 08:41:50;;;;;;;4.17;1.67;;;;;;;3.73;67.98;100710.70;1763805;79;21257;-64
2021/03/03 08:44:17;;;;;;;4.63;1.97;;;;;;;3.75;68.18;100715.09;1783731;78;21056;-64
2021/03/03 08:46:47;;;;;;;4.40;1.40;;;;;;;3.77;68.14;100709.33;1785201;78;22376;-64
2021/03/03 08:49:20;;;;;;;3.77;1.47;;;;;;;3.79;67.90;100704.88;1778865;79;21854;-63
2021/03/03 08:51:49;;;;;;;4.97;1.57;;;;;;;3.80;68.14;100698.67;1772231;79;21263;-64
2021/03/03 08:54:19;;;;;;;4.20;1.27;;;;;;;3.89;67.97;100708.38;1760066;79;21127;-65
2021/03/03 08:56:52;;;;;;;5.70;1.27;;;;;;;3.95;68.05;100696.80;1784995;78;21113;-63
2021/03/03 08:59:40;;;;;;;4.35;1.75;;;;;;;4.00;67.73;100701.19;1759217;79;21542;-64
2021/03/03 09:04:55;;;;;;;3.07;1.23;;;;;;;4.12;67.24;100698.89;1870287;75;26664;-69
2021/03/03 09:07:32;;;;;;;4.47;1.40;;;;;;;4.10;67.07;100702.02;1781585;79;21502;-65
2021/03/03 09:10:19;;;;;;;3.77;1.90;;;;;;;4.10;66.71;100701.56;1792517;78;21442;-64
2021/03/03 09:12:46;;;;;;;3.37;1.47;;;;;;;4.08;66.67;100703.83;1763020;80;21101;-65
2021/03/03 09:15:15;;;;;;;3.17;1.47;;;;;;;4.09;67.04;100709.56;1777434;78;21155;-65
2021/03/03 09:17:44;;;;;;;3.20;1.70;;;;;;;4.12;66.96;100706.89;1808598;78;21205;-63
2021/03/03 09:20:18;;;;;;;6.03;3.00;;;;;;;4.19;67.04;100701.95;1784350;78;21155;-65
2021/03/03 09:22:46;;;;;;;7.22;2.05;;;;;;;4.26;66.67;100718.77;1783674;78;21555;-63
2021/03/03 09:25:20;;;;;;;5.20;1.97;;;;;;;4.31;66.58;100715.20;1800117;78;21198;-65
2021/03/03 09:27:58;;;;;;;2.20;1.50;;;;;;;4.37;66.61;100715.59;1806159;78;21471;-65
2021/03/03 09:30:28;;;;;;;3.10;1.27;;;;;;;4.43;66.20;100720.86;1779944;78;21225;-64
2021/03/03 09:32:56;;;;;;;2.90;0.90;;;;;;;4.50;66.03;100720.83;1782909;78;21091;-64
2021/03/03 09:35:30;;;;;;;3.67;1.37;;;;;;;4.59;66.16;100715.86;1805167;78;22527;-65
2021/03/03 09:37:58;;;;;;;1.47;0.90;;;;;;;4.70;65.55;100715.30;1764395;79;21231;-65
2021/03/03 09:40:33;;;;;;;5.40;1.20;;;;;;;4.77;65.20;100705.45;1801888;78;21166;-65
2021/03/03 09:43:01;;;;;;;;;;;;;;;4.84;64.87;100706.73;1754217;78;21523;-63
2021/03/03 09:45:29;;;;;;;2.93;1.10;;;;;;;4.88;64.65;100706.23;1764743;79;20246;-65
2021/03/03 09:47:57;;;;;;;4.27;1.17;;;;;;;4.87;64.99;100710.69;1733335;81;21645;-66
2021/03/03 09:50:28;;;;;;;4.07;1.33;;;;;;;4.91;64.81;100711.11;1751067;79;21179;-64
2021/03/03 09:52:55;;;;;;;1.90;1.20;;;;;;;4.94;64.46;100707.05;1756413;79;21171;-64
2021/03/03 09:55:35;;;;;;;2.37;1.10;;;;;;;4.93;63.92;100704.42;1756923;79;21851;-65
2021/03/03 09:58:03;;;;;;;1.77;1.10;;;;;;;4.93;63.88;100710.61;1755128;79;22083;-65
2021/03/03 10:00:36;;;;;;;3.17;1.30;;;;;;;4.92;63.85;100699.98;1758412;79;21227;-66
2021/03/03 10:03:10;;;;;;;3.53;1.00;;;;;;;4.94;63.98;100697.72;1725687;79;21301;-63
2021/03/03 10:05:38;;;;;;;1.98;0.95;;;;;;;4.99;64.10;100700.35;1741454;80;21776;-65
2021/03/03 10:08:09;;;;;;;1.93;1.00;;;;;;;5.03;63.52;100712.74;1741327;80;21222;-64
2021/03/03 10:10:39;;;;;;;1.90;0.93;;;;;;;5.03;63.14;100702.06;1715249;80;21197;-66
2021/03/03 10:13:22;;;;;;;4.17;1.40;;;;;;;5.02;62.97;100701.63;1739162;80;21139;-63
2021/03/03 10:15:49;;;;;;;3.47;1.13;;;;;;;5.02;62.80;100695.44;1711843;81;21538;-63
2021/03/03 10:18:17;;;;;;;2.63;0.97;;;;;;;5.00;63.02;100687.45;1736888;80;21539;-64
2021/03/03 10:20:54;;;;;;;2.90;1.00;;;;;;;5.04;63.39;100682.50;1733556;81;21211;-65
2021/03/03 10:23:24;;;;;;;2.83;0.87;;;;;;;5.11;63.16;100689.53;1736109;80;21454;-64
2021/03/03 10:26:03;;;;;;;3.67;0.90;;;;;;;5.17;63.20;100680.59;1757440;79;22573;-65
2021/03/03 10:28:30;;;;;;;2.37;0.90;;;;;;;5.26;63.20;100676.48;1739083;80;21172;-69
2021/03/03 10:31:02;;;;;;;2.00;1.07;;;;;;;5.35;62.52;100675.48;1738057;80;21199;-63
2021/03/03 10:33:39;;;;;;;2.20;0.90;;;;;;;5.42;61.77;100683.84;1723854;81;21235;-63
2021/03/03 10:36:21;;;;;;;2.43;0.80;;;;;;;5.44;61.70;100679.38;1735300;81;21207;-64
2021/03/03 10:38:54;;;;;;;3.47;0.70;;;;;;;5.43;60.60;100675.82;1736892;80;21456;-62
2021/03/03 10:44:08;;;;;;;2.27;1.00;;;;;;;5.46;60.72;100666.86;1865031;75;26734;-66
2021/03/03 10:46:44;;;;;;;6.80;0.83;;;;;;;5.42;60.52;100665.16;1837378;76;21039;-64
2021/03/03 10:49:14;;;;;;;1.70;0.70;;;;;;;5.38;60.15;100674.97;1796967;78;22390;-64
2021/03/03 10:51:43;;;;;;;0.90;0.70;;;;;;;5.34;59.54;100677.27;1804249;78;21061;-66
2021/03/03 10:54:10;;;;;;;3.40;0.57;;;;;;;5.30;59.71;100668.40;1802192;78;21455;-63
2021/03/03 10:56:40;;;;;;;1.33;0.60;;;;;;;5.31;59.57;100667.50;1784847;78;21486;-67
2021/03/03 10:59:26;;;;;;;1.43;0.60;;;;;;;5.29;59.00;100662.62;1791833;78;20985;-64
2021/03/03 11:01:57;;;;;;;2.50;0.63;;;;;;;5.24;59.15;100660.47;1799542;78;22306;-64
2021/03/03 11:04:24;;;;;;;2.70;0.67;;;;;;;5.21;59.03;100657.83;1780634;78;21222;-62
2021/03/03 11:06:51;;;;;;;2.53;0.70;;;;;;;5.24;59.38;100655.59;1797678;78;21169;-63
2021/03/03 11:09:19;;;;;;;2.20;0.70;;;;;;;5.28;59.40;100655.96;1801426;78;21620;-63
2021/03/03 11:11:53;;;;;;;2.20;0.80;;;;;;;5.30;59.54;100655.50;1801915;78;21423;-64
2021/03/03 11:14:20;;;;;;;2.92;0.88;;;;;;;5.36;59.62;100658.08;1806157;78;21397;-63
2021/03/03 11:16:48;;;;;;;2.60;0.77;;;;;;;5.42;60.08;100646.01;1766031;80;21715;-65
2021/03/03 11:19:16;;;;;;;2.07;1.00;;;;;;;5.49;60.13;100650.36;1780336;78;21123;-69
2021/03/03 11:21:43;;;;;;;3.67;1.00;;;;;;;5.52;59.89;100642.32;1767927;79;21137;-63
2021/03/03 11:24:10;;;;;;;4.00;0.70;;;;;;;5.52;60.12;100642.77;1774894;78;20966;-66
2021/03/03 11:26:40;;;;;;;1.20;0.70;;;;;;;5.55;60.31;100640.03;1774660;79;21152;-63
2021/03/03 11:29:08;;;;;;;2.40;0.70;;;;;;;5.54;60.14;100639.16;1767859;79;21202;-63
2021/03/03 11:31:36;;;;;;;1.40;0.70;;;;;;;5.55;59.98;100634.69;1780848;78;21104;-63
2021/03/03 11:34:04;;;;;;;2.30;0.90;;;;;;;5.54;59.60;100639.16;1804459;78;21099;-64
2021/03/03 11:36:31;;;;;;;1.57;0.70;;;;;;;5.49;59.11;100634.34;1798527;78;21132;-70
2021/03/03 11:38:59;;;;;;;1.40;0.60;;;;;;;5.45;58.93;100637.05;1801084;78;22085;-68
2021/03/03 11:41:26;;;;;;;1.10;0.70;;;;;;;5.42;58.96;100629.11;1802363;78;21142;-63
2021/03/03 11:43:53;;;;;;;2.47;0.70;;;;;;;5.38;59.21;100624.24;1811963;77;21099;-63
2021/03/03 11:46:21;;;;;;;3.37;0.90;;;;;;;5.38;59.01;100629.59;1779260;78;21105;-64
2021/03/03 11:48:49;;;;;;;3.40;0.90;;;;;;;5.33;59.25;100625.66;1785197;79;21067;-62
2021/03/03 11:51:16;;;;;;;2.00;0.70;;;;;;;5.32;59.50;100629.23;1811264;77;23078;-64
2021/03/03 11:53:43;;;;;;;2.80;0.70;;;;;;;5.34;59.76;100621.20;1811305;77;21163;-64
2021/03/03 11:56:10;;;;;;;5.83;1.10;;;;;;;5.41;60.03;100617.99;1779538;79;21091;-63
2021/03/03 11:58:37;;;;;;;2.27;1.20;;;;;;;5.53;60.33;100613.83;1781893;78;22276;-63
2021/03/03 12:01:05;;;;;;;2.30;1.20;;;;;;;5.61;60.28;100619.95;1784108;79;21222;-65